Time;durP1;ratioP1;P1;durP2;ratioP2;P2;SDS_P1;SDS_P2;PMS_P1;PMS_P2;Temp;Humidity;BMP_temperature;BMP_pressure;BME280_temperature;BME280_humidity;BME280_pressure;Samples;Min_cycle;Max_cycle;Signal;HPM_P1;HPM_P2
2022/06/06 00:01:40;;;;;;;0.40;0.40;;;14.90;99.90;;;;;;5054148;28;20195;-78
2022/06/06 00:04:05;;;;;;;0.40;0.40;;;14.90;99.90;;;;;;5054386;28;20190;-78
2022/06/06 00:06:31;;;;;;;0.40;0.40;;;15.00;99.90;;;;;;5053790;28;20209;-78
2022/06/06 00:08:57;;;;;;;0.40;0.40;;;15.00;99.90;;;;;;5053910;28;20636;-78
2022/06/06 00:11:23;;;;;;;0.50;0.50;;;15.00;99.90;;;;;;5053748;28;20203;-80
2022/06/06 00:13:49;;;;;;;0.40;0.40;;;15.10;99.90;;;;;;5054423;28;20632;-78
2022/06/06 00:16:14;;;;;;;0.40;0.40;;;15.10;99.90;;;;;;5053837;28;20175;-78
2022/06/06 00:18:40;;;;;;;0.30;0.30;;;15.00;99.90;;;;;;5053496;28;20558;-78
2022/06/06 00:21:08;;;;;;;0.40;0.40;;;15.10;99.90;;;;;;5053356;28;20195;-78
2022/06/06 00:23:34;;;;;;;0.40;0.40;;;15.00;99.90;;;;;;5054007;28;20667;-79
2022/06/06 00:26:01;;;;;;;0.43;0.43;;;15.00;99.90;;;;;;5054455;28;20628;-78
2022/06/06 00:28:27;;;;;;;0.40;0.40;;;15.00;99.90;;;;;;5054290;28;20183;-78
2022/06/06 00:30:57;;;;;;;0.40;0.40;;;15.00;99.90;;;;;;5053356;28;20581;-78
2022/06/06 00:36:07;;;;;;;0.30;0.30;;;14.80;99.90;;;;;;5053766;28;20179;-78
2022/06/06 00:38:33;;;;;;;0.40;0.40;;;14.70;99.90;;;;;;5053267;28;20222;-78
2022/06/06 00:40:59;;;;;;;0.40;0.40;;;14.70;99.90;;;;;;5053210;28;20568;-78
2022/06/06 00:43:25;;;;;;;0.50;0.50;;;14.70;99.90;;;;;;5053440;28;20408;-76
2022/06/06 00:45:56;;;;;;;0.40;0.40;;;14.70;99.90;;;;;;5052043;28;20171;-78
2022/06/06 00:48:26;;;;;;;0.30;0.30;;;14.60;99.90;;;;;;5053497;28;20205;-78
2022/06/06 00:51:05;;;;;;;0.40;0.40;;;14.60;99.90;;;;;;5053315;28;20186;-78
2022/06/06 00:53:48;;;;;;;0.40;0.40;;;14.60;99.90;;;;;;5052955;28;20237;-78
2022/06/06 00:56:28;;;;;;;0.40;0.40;;;14.50;99.90;;;;;;5053669;28;20232;-77
2022/06/06 00:58:59;;;;;;;0.40;0.40;;;14.50;99.90;;;;;;5053387;28;20274;-78
2022/06/06 01:01:26;;;;;;;0.43;0.43;;;14.40;99.90;;;;;;5053041;28;20199;-78
2022/06/06 01:03:55;;;;;;;0.40;0.40;;;14.40;99.90;;;;;;5053442;28;20234;-78
2022/06/06 01:06:22;;;;;;;0.50;0.50;;;14.30;99.90;;;;;;5053155;28;20179;-78
2022/06/06 01:08:48;;;;;;;0.37;0.37;;;14.30;99.90;;;;;;5053511;28;20187;-78
2022/06/06 01:11:13;;;;;;;0.40;0.40;;;14.30;99.90;;;;;;5052940;28;20202;-78
2022/06/06 01:13:41;;;;;;;0.57;0.57;;;14.30;99.90;;;;;;5053444;28;20175;-77
2022/06/06 01:16:27;;;;;;;0.50;0.50;;;14.30;99.90;;;;;;5053422;28;20191;-78
2022/06/06 01:19:11;;;;;;;0.40;0.40;;;14.30;99.90;;;;;;5052705;28;20218;-78
2022/06/06 01:21:56;;;;;;;0.40;0.40;;;14.30;99.90;;;;;;5053905;28;20206;-78
2022/06/06 01:24:53;;;;;;;0.40;0.40;;;14.20;99.90;;;;;;5056163;28;20177;-78
2022/06/06 01:27:37;;;;;;;0.40;0.40;;;14.20;99.90;;;;;;5057309;28;20262;-78
2022/06/06 01:30:15;;;;;;;0.40;0.40;;;14.20;99.90;;;;;;5056943;28;20652;-78
2022/06/06 01:32:48;;;;;;;0.50;0.50;;;14.20;99.90;;;;;;5056302;28;20664;-78
2022/06/06 01:35:27;;;;;;;0.40;0.40;;;14.20;99.90;;;;;;5056621;28;20193;-78
2022/06/06 01:37:53;;;;;;;0.67;0.67;;;14.20;99.90;;;;;;5056361;28;20578;-78
2022/06/06 01:40:19;;;;;;;0.50;0.50;;;14.10;99.90;;;;;;5055523;28;20193;-78
2022/06/06 01:43:00;;;;;;;0.57;0.57;;;14.10;99.90;;;;;;5055726;28;20202;-79
2022/06/06 01:45:41;;;;;;;0.30;0.30;;;14.10;99.90;;;;;;5056969;28;20174;-78
2022/06/06 01:48:11;;;;;;;0.50;0.50;;;14.00;99.90;;;;;;5056765;28;20245;-78
2022/06/06 01:50:39;;;;;;;0.40;0.40;;;13.90;99.90;;;;;;5055688;28;20674;-78
2022/06/06 01:53:08;;;;;;;0.50;0.50;;;13.90;99.90;;;;;;5057524;28;20295;-78
2022/06/06 01:55:36;;;;;;;0.50;0.50;;;13.80;99.90;;;;;;5058108;28;20186;-78
2022/06/06 01:58:06;;;;;;;0.40;0.40;;;13.90;99.90;;;;;;5058123;28;20239;-78
2022/06/06 02:00:34;;;;;;;0.60;0.60;;;13.80;99.90;;;;;;5057399;28;20179;-79
2022/06/06 02:03:00;;;;;;;0.50;0.50;;;13.90;99.90;;;;;;5057488;28;20202;-78
2022/06/06 02:05:26;;;;;;;0.40;0.40;;;13.80;99.90;;;;;;5058436;28;20194;-79
2022/06/06 02:07:52;;;;;;;0.50;0.50;;;13.80;99.90;;;;;;5059322;28;20593;-79
2022/06/06 02:10:18;;;;;;;0.50;0.50;;;13.70;99.90;;;;;;5058337;28;20178;-78
2022/06/06 02:12:44;;;;;;;0.40;0.40;;;13.60;99.90;;;;;;5059392;28;20695;-79
2022/06/06 02:15:13;;;;;;;0.50;0.50;;;13.60;99.90;;;;;;5058715;28;20182;-78
2022/06/06 02:17:38;;;;;;;0.57;0.57;;;13.60;99.90;;;;;;5058316;28;20203;-79
2022/06/06 02:20:05;;;;;;;0.57;0.57;;;13.60;99.90;;;;;;5057864;28;20230;-78
2022/06/06 02:22:32;;;;;;;0.60;0.60;;;13.60;99.90;;;;;;5057938;28;20203;-78
2022/06/06 02:24:58;;;;;;;0.47;0.47;;;13.50;99.90;;;;;;5056980;28;20406;-79
2022/06/06 02:27:23;;;;;;;0.40;0.40;;;13.50;99.90;;;;;;5057491;28;20215;-78
2022/06/06 02:29:49;;;;;;;0.40;0.40;;;13.40;99.90;;;;;;5056790;28;20189;-78
2022/06/06 02:32:15;;;;;;;0.40;0.40;;;13.40;99.90;;;;;;5057634;28;20213;-78
2022/06/06 02:34:40;;;;;;;0.40;0.40;;;13.40;99.90;;;;;;5057304;28;20172;-78
2022/06/06 02:37:06;;;;;;;0.40;0.40;;;13.40;99.90;;;;;;5057336;28;20245;-78
2022/06/06 02:39:32;;;;;;;0.40;0.40;;;13.30;99.90;;;;;;5057192;28;20225;-78
2022/06/06 02:41:57;;;;;;;0.43;0.43;;;13.30;99.90;;;;;;5057501;28;20302;-78
2022/06/06 02:44:24;;;;;;;0.47;0.47;;;13.30;99.90;;;;;;5057130;28;20269;-79
2022/06/06 02:46:50;;;;;;;0.47;0.47;;;13.30;99.90;;;;;;5057737;28;20277;-78
2022/06/06 02:49:16;;;;;;;0.40;0.40;;;13.20;99.90;;;;;;5057101;28;20179;-78
2022/06/06 02:51:42;;;;;;;0.50;0.50;;;13.10;99.90;;;;;;5056236;28;20191;-79
2022/06/06 02:54:08;;;;;;;0.30;0.30;;;13.10;99.90;;;;;;5057445;28;20185;-78
2022/06/06 02:56:33;;;;;;;0.40;0.40;;;13.10;99.90;;;;;;5057639;28;20198;-78
2022/06/06 02:59:04;;;;;;;0.50;0.50;;;13.10;99.90;;;;;;5056721;28;20191;-78
2022/06/06 03:01:30;;;;;;;0.57;0.57;;;13.10;99.90;;;;;;5052616;28;20225;-78
2022/06/06 03:03:56;;;;;;;0.50;0.50;;;13.00;99.90;;;;;;5056930;28;20186;-79
2022/06/06 03:06:43;;;;;;;0.40;0.40;;;13.00;99.90;;;;;;5056638;28;20175;-78
2022/06/06 03:09:32;;;;;;;0.50;0.50;;;13.00;99.90;;;;;;5055797;28;20193;-78
2022/06/06 03:12:28;;;;;;;0.50;0.50;;;13.00;99.90;;;;;;5037744;28;20227;-78
2022/06/06 03:15:07;;;;;;;0.40;0.40;;;13.00;99.90;;;;;;5056109;28;20789;-78
2022/06/06 03:20:50;;;;;;;0.60;0.60;;;13.00;99.90;;;;;;5054685;28;20182;-78
2022/06/06 03:23:37;;;;;;;0.50;0.50;;;12.90;99.90;;;;;;5056710;28;20175;-78
2022/06/06 03:26:25;;;;;;;0.40;0.40;;;12.90;99.90;;;;;;5056098;28;20183;-78
2022/06/06 03:29:16;;;;;;;0.40;0.40;;;12.90;99.90;;;;;;5055776;28;20182;-78
2022/06/06 03:31:59;;;;;;;0.40;0.40;;;12.90;99.90;;;;;;5055839;28;20191;-78
2022/06/06 03:34:46;;;;;;;0.50;0.50;;;12.40;99.90;;;;;;5055954;28;20179;-79
2022/06/06 03:37:47;;;;;;;0.40;0.40;;;12.80;99.90;;;;;;5055612;28;20591;-79
2022/06/06 03:40:46;;;;;;;0.30;0.30;;;12.70;99.90;;;;;;5054977;28;20260;-78
2022/06/06 03:43:26;;;;;;;0.47;0.47;;;12.70;99.90;;;;;;5054988;28;20730;-78
2022/06/06 03:46:02;;;;;;;0.50;0.50;;;12.80;99.90;;;;;;5055964;28;20297;-78
2022/06/06 03:48:41;;;;;;;0.50;0.50;;;12.80;99.90;;;;;;5056127;28;20234;-79
2022/06/06 03:51:49;;;;;;;0.40;0.40;;;12.90;99.90;;;;;;5055505;28;20756;-78
2022/06/06 03:54:24;;;;;;;0.60;0.60;;;13.00;99.90;;;;;;5055772;28;20193;-78
2022/06/06 03:57:11;;;;;;;0.50;0.50;;;13.00;99.90;;;;;;5055767;28;20218;-78
2022/06/06 03:59:39;;;;;;;0.40;0.40;;;13.10;99.90;;;;;;5054127;28;20182;-78
2022/06/06 04:02:06;;;;;;;0.70;0.70;;;13.10;99.90;;;;;;5056082;28;20729;-78
2022/06/06 04:04:32;;;;;;;0.50;0.50;;;13.20;99.90;;;;;;5056127;28;20179;-78
2022/06/06 04:07:00;;;;;;;0.40;0.40;;;13.20;99.90;;;;;;5055899;28;20636;-78
2022/06/06 04:09:29;;;;;;;0.50;0.50;;;13.30;99.90;;;;;;5054714;28;20250;-78
2022/06/06 04:12:18;;;;;;;0.47;0.47;;;13.20;99.90;;;;;;5055450;28;20256;-78
2022/06/06 04:14:50;;;;;;;0.40;0.40;;;13.20;99.90;;;;;;5055361;28;20179;-79
2022/06/06 04:17:34;;;;;;;0.50;0.50;;;13.30;99.90;;;;;;5054751;28;20206;-79
2022/06/06 04:20:22;;;;;;;0.40;0.40;;;13.40;99.90;;;;;;5054265;28;20171;-78
2022/06/06 04:23:09;;;;;;;0.50;0.50;;;13.40;99.90;;;;;;5054832;28;20263;-78
2022/06/06 04:25:45;;;;;;;0.43;0.43;;;13.50;99.90;;;;;;5055323;28;20179;-78
2022/06/06 04:28:27;;;;;;;0.40;0.40;;;13.70;99.90;;;;;;5055201;28;20725;-79
2022/06/06 04:31:01;;;;;;;0.40;0.40;;;13.80;99.90;;;;;;5053943;28;20171;-79
2022/06/06 04:33:36;;;;;;;0.50;0.50;;;13.80;99.90;;;;;;5054811;28;20213;-78
2022/06/06 04:36:23;;;;;;;0.50;0.50;;;13.90;99.90;;;;;;5052954;28;20194;-79
2022/06/06 04:39:05;;;;;;;0.50;0.50;;;14.00;99.90;;;;;;5056154;28;20237;-78
2022/06/06 04:41:41;;;;;;;0.60;0.60;;;14.10;99.90;;;;;;5055843;28;20264;-78
2022/06/06 04:44:25;;;;;;;0.57;0.57;;;14.40;99.90;;;;;;5049878;28;20183;-79
2022/06/06 04:46:55;;;;;;;0.40;0.40;;;14.50;99.90;;;;;;5054886;28;20175;-78
2022/06/06 04:49:22;;;;;;;0.40;0.40;;;14.50;99.90;;;;;;5055451;28;20179;-79
2022/06/06 04:51:49;;;;;;;0.50;0.50;;;14.70;99.90;;;;;;5056062;28;20657;-79
2022/06/06 04:54:20;;;;;;;0.50;0.50;;;14.90;99.90;;;;;;5055557;28;20175;-79
2022/06/06 04:56:47;;;;;;;0.50;0.50;;;14.80;99.90;;;;;;5054563;28;20270;-79
2022/06/06 04:59:14;;;;;;;0.30;0.30;;;14.70;99.90;;;;;;5056078;28;20199;-79
2022/06/06 05:01:41;;;;;;;0.30;0.30;;;14.80;99.90;;;;;;5058976;28;20217;-78
2022/06/06 05:04:07;;;;;;;0.40;0.40;;;14.80;99.90;;;;;;5057875;28;20179;-78
2022/06/06 05:06:50;;;;;;;0.47;0.47;;;14.90;99.90;;;;;;5059055;28;20171;-79
2022/06/06 05:09:25;;;;;;;0.47;0.47;;;15.30;99.90;;;;;;5058621;28;20167;-79
2022/06/06 05:12:09;;;;;;;0.50;0.50;;;15.70;99.90;;;;;;5059260;28;20211;-78
2022/06/06 05:14:35;;;;;;;0.40;0.40;;;16.00;99.90;;;;;;5058556;28;20167;-78
2022/06/06 05:17:24;;;;;;;0.47;0.47;;;16.20;99.90;;;;;;5057869;28;20207;-78
2022/06/06 05:20:11;;;;;;;0.40;0.40;;;16.20;99.90;;;;;;5058386;28;20665;-79
2022/06/06 05:23:08;;;;;;;0.50;0.50;;;16.20;99.90;;;;;;5037355;28;20198;-79
2022/06/06 05:25:49;;;;;;;0.40;0.40;;;16.10;99.90;;;;;;5055746;28;20190;-77
2022/06/06 05:28:35;;;;;;;0.50;0.50;;;15.80;99.90;;;;;;5056694;28;20171;-79
2022/06/06 05:31:12;;;;;;;0.60;0.60;;;15.50;99.90;;;;;;5053752;28;20190;-79
2022/06/06 05:34:00;;;;;;;0.43;0.43;;;15.40;99.90;;;;;;5057341;28;20619;-78
2022/06/06 05:36:35;;;;;;;0.40;0.40;;;15.30;99.90;;;;;;5057905;28;20179;-79
2022/06/06 05:39:23;;;;;;;0.43;0.43;;;15.40;99.90;;;;;;5056408;28;20194;-79
2022/06/06 05:42:20;;;;;;;0.40;0.40;;;15.50;99.90;;;;;;5057660;28;20219;-79
2022/06/06 05:45:13;;;;;;;0.40;0.40;;;15.60;99.90;;;;;;5058374;28;20191;-79
2022/06/06 05:48:03;;;;;;;0.47;0.47;;;15.60;99.90;;;;;;5056022;28;20300;-79
2022/06/06 05:50:57;;;;;;;0.30;0.30;;;15.90;99.90;;;;;;5059747;28;20183;-78
2022/06/06 05:53:41;;;;;;;0.50;0.50;;;16.30;99.90;;;;;;5062949;28;20212;-80
2022/06/06 05:56:27;;;;;;;0.50;0.50;;;16.60;99.90;;;;;;5063335;28;20201;-80
2022/06/06 05:59:31;;;;;;;0.40;0.40;;;16.80;99.90;;;;;;5057918;28;20309;-80
2022/06/06 06:02:09;;;;;;;0.40;0.40;;;16.80;99.90;;;;;;4959695;28;20214;-79
2022/06/06 06:05:14;;;;;;;0.50;0.50;;;16.80;99.90;;;;;;5047444;28;20195;-78
2022/06/06 06:08:36;;;;;;;0.40;0.40;;;16.60;99.90;;;;;;5053573;28;20320;-78
2022/06/06 06:11:41;;;;;;;0.40;0.40;;;16.50;99.90;;;;;;4952841;28;20671;-78
2022/06/06 06:14:49;;;;;;;0.40;0.40;;;16.60;99.90;;;;;;4902789;29;20194;-78
2022/06/06 06:17:19;;;;;;;0.30;0.30;;;16.60;99.90;;;;;;5035902;28;20572;-78
2022/06/06 06:19:53;;;;;;;0.50;0.50;;;16.70;99.90;;;;;;5035755;28;20376;-78
2022/06/06 06:22:21;;;;;;;0.40;0.40;;;16.70;99.90;;;;;;5036404;28;20245;-76
2022/06/06 06:24:49;;;;;;;0.40;0.40;;;16.70;99.90;;;;;;5036073;28;20183;-78
2022/06/06 06:27:17;;;;;;;0.47;0.47;;;16.90;99.90;;;;;;5041826;28;20210;-78
2022/06/06 06:29:42;;;;;;;0.50;0.50;;;17.00;99.90;;;;;;5054305;28;20183;-79
2022/06/06 06:32:33;;;;;;;0.30;0.30;;;17.30;99.90;;;;;;5055954;28;20203;-78
2022/06/06 06:35:07;;;;;;;0.40;0.40;;;17.50;99.90;;;;;;5056208;28;20277;-79
2022/06/06 06:38:00;;;;;;;0.50;0.50;;;17.50;99.90;;;;;;5055789;28;20659;-78
2022/06/06 06:40:40;;;;;;;0.50;0.50;;;17.60;99.90;;;;;;5055335;28;20617;-76
2022/06/06 06:43:20;;;;;;;0.40;0.40;;;17.70;99.90;;;;;;5055638;28;20532;-77
2022/06/06 06:45:54;;;;;;;0.40;0.40;;;17.80;99.90;;;;;;5056212;28;20265;-78
2022/06/06 06:48:38;;;;;;;0.40;0.40;;;17.80;99.90;;;;;;5055933;28;20257;-78
2022/06/06 06:51:22;;;;;;;0.40;0.40;;;17.90;99.90;;;;;;5054788;28;20191;-79
2022/06/06 06:54:09;;;;;;;0.30;0.30;;;17.90;90.50;;;;;;5055299;28;20273;-79
2022/06/06 06:56:47;;;;;;;0.40;0.40;;;17.80;75.60;;;;;;5054736;28;20258;-78
2022/06/06 06:59:24;;;;;;;0.50;0.50;;;18.00;99.90;;;;;;5055093;28;20167;-76
2022/06/06 07:08:36;;;;;;;0.40;0.40;;;18.10;99.90;;;;;;5052394;28;20178;-80
2022/06/06 07:11:21;;;;;;;0.40;0.40;;;18.40;99.90;;;;;;5041645;28;20175;-79
2022/06/06 07:14:02;;;;;;;0.30;0.30;;;18.60;60.00;;;;;;5052918;28;20175;-79
2022/06/06 07:16:31;;;;;;;0.40;0.40;;;18.80;26.10;;;;;;5041279;28;20179;-78
2022/06/06 07:19:17;;;;;;;0.40;0.40;;;19.20;1.00;;;;;;5050936;28;20211;-79
2022/06/06 07:21:45;;;;;;;0.30;0.30;;;19.30;1.00;;;;;;5042587;28;20198;-79
2022/06/06 07:24:15;;;;;;;0.30;0.30;;;19.50;1.00;;;;;;5054780;28;20278;-79
2022/06/06 07:26:42;;;;;;;0.40;0.40;;;19.60;1.00;;;;;;5040582;28;20258;-79
2022/06/06 07:29:11;;;;;;;0.30;0.30;;;19.80;1.00;;;;;;5037747;28;20179;-80
2022/06/06 07:31:47;;;;;;;0.40;0.40;;;19.90;1.00;;;;;;5054337;28;20253;-80
2022/06/06 07:34:22;;;;;;;0.40;0.40;;;20.30;1.00;;;;;;5047287;28;20183;-79
2022/06/06 07:37:25;;;;;;;0.30;0.30;;;20.40;1.00;;;;;;5045331;28;20640;-79
2022/06/06 07:40:09;;;;;;;0.40;0.40;;;20.70;1.00;;;;;;5053355;28;20559;-80
2022/06/06 07:42:51;;;;;;;0.30;0.30;;;20.90;99.90;;;;;;5053411;28;20231;-79
2022/06/06 07:45:38;;;;;;;0.30;0.30;;;21.00;99.90;;;;;;5037784;28;20221;-80
2022/06/06 07:48:22;;;;;;;0.40;0.40;;;21.10;99.90;;;;;;5053005;28;20179;-80
2022/06/06 07:51:13;;;;;;;0.33;0.33;;;21.20;1.00;;;;;;5036214;28;20183;-80
2022/06/06 07:54:12;;;;;;;0.40;0.40;;;21.40;1.00;;;;;;5052498;28;20184;-81
2022/06/06 07:57:01;;;;;;;0.40;0.40;;;21.70;99.90;;;;;;5053290;28;20282;-80
2022/06/06 07:59:30;;;;;;;0.40;0.40;;;22.10;1.00;;;;;;5052002;28;20179;-80
2022/06/06 08:02:00;;;;;;;0.30;0.30;;;22.50;23.50;;;;;;5046604;28;20197;-81
2022/06/06 08:04:38;;;;;;;0.30;0.30;;;22.70;99.90;;;;;;5053314;28;20175;-80
2022/06/06 08:07:22;;;;;;;0.30;0.30;;;22.70;99.90;;;;;;5053363;28;20179;-83
2022/06/06 08:10:05;;;;;;;0.40;0.40;;;22.60;1.00;;;;;;5047993;28;20201;-81
2022/06/06 08:13:09;;;;;;;0.40;0.40;;;23.10;1.00;;;;;;5050201;28;20230;-81
2022/06/06 08:15:55;;;;;;;0.47;0.47;;;23.20;99.90;;;;;;5049739;28;20226;-81
2022/06/06 08:18:39;;;;;;;0.33;0.33;;;23.20;1.00;;;;;;5049104;28;20231;-80
2022/06/06 08:21:46;;;;;;;0.40;0.40;;;23.10;99.90;;;;;;5050808;28;20186;-80
2022/06/06 08:24:43;;;;;;;0.30;0.30;;;22.90;99.90;;;;;;5050052;28;20212;-80
2022/06/06 08:27:14;;;;;;;0.40;0.40;;;23.20;99.90;;;;;;5031515;28;20179;-80
2022/06/06 08:29:43;;;;;;;0.23;0.23;;;23.40;99.90;;;;;;5052601;28;20743;-80
2022/06/06 08:32:10;;;;;;;0.40;0.40;;;23.50;52.70;;;;;;5051558;28;20261;-80
2022/06/06 08:34:37;;;;;;;0.40;0.40;;;23.00;99.90;;;;;;5057137;28;20179;-80
2022/06/06 08:37:27;;;;;;;0.40;0.40;;;23.00;99.90;;;;;;5039761;28;20203;-80
2022/06/06 08:39:56;;;;;;;0.30;0.30;;;23.20;1.00;;;;;;5055466;28;20187;-81
2022/06/06 08:42:49;;;;;;;0.40;0.40;;;23.70;52.00;;;;;;5057313;28;20187;-80
2022/06/06 08:45:22;;;;;;;0.40;0.40;;;24.00;57.60;;;;;;5049982;28;20237;-80
2022/06/06 08:47:58;;;;;;;0.37;0.37;;;24.40;1.00;;;;;;5055859;28;20179;-79
2022/06/06 08:50:44;;;;;;;0.37;0.37;;;24.60;1.00;;;;;;5050599;28;20671;-79
2022/06/06 08:53:28;;;;;;;0.33;0.33;;;24.50;1.00;;;;;;5054223;28;20237;-79
2022/06/06 08:56:31;;;;;;;0.30;0.30;;;25.00;1.00;;;;;;5050709;28;20191;-79
2022/06/06 08:59:29;;;;;;;0.60;0.60;;;25.60;1.00;;;;;;5048004;28;20210;-78
2022/06/06 09:02:08;;;;;;;0.40;0.40;;;26.00;1.00;;;;;;5054503;28;20217;-79
2022/06/06 09:05:03;;;;;;;0.50;0.50;;;26.50;1.00;;;;;;5055126;28;20179;-79
2022/06/06 09:07:50;;;;;;;0.40;0.40;;;26.30;1.00;;;;;;5055425;28;20175;-79
2022/06/06 09:10:47;;;;;;;0.40;0.40;;;25.60;1.00;;;;;;5055143;28;20222;-78
2022/06/06 09:13:35;;;;;;;0.40;0.40;;;25.00;1.00;;;;;;5056338;28;20175;-79
2022/06/06 09:16:21;;;;;;;0.30;0.30;;;25.00;1.00;;;;;;5052097;28;20175;-78
2022/06/06 09:19:17;;;;;;;0.40;0.40;;;24.70;1.00;;;;;;5055848;28;20210;-80
2022/06/06 09:22:07;;;;;;;0.40;0.40;;;25.10;1.00;;;;;;5059399;28;20263;-79
2022/06/06 09:24:55;;;;;;;0.40;0.40;;;25.40;1.00;;;;;;5065189;28;20180;-78
2022/06/06 09:27:42;;;;;;;0.50;0.50;;;25.60;1.00;;;;;;5066259;28;20179;-79
2022/06/06 09:30:36;;;;;;;0.40;0.40;;;25.50;1.00;;;;;;5065767;28;20647;-78
2022/06/06 09:33:07;;;;;;;0.33;0.33;;;25.70;1.00;;;;;;5063886;28;20203;-79
2022/06/06 09:36:03;;;;;;;0.50;0.50;;;25.40;1.00;;;;;;5063303;28;20175;-79
2022/06/06 09:38:29;;;;;;;0.50;0.50;;;25.20;1.00;;;;;;5064531;28;20215;-78
2022/06/06 09:41:14;;;;;;;0.40;0.40;;;25.40;1.00;;;;;;5059851;28;20199;-78
2022/06/06 09:43:58;;;;;;;0.30;0.30;;;25.70;1.00;;;;;;5059781;28;20258;-80
2022/06/06 09:47:01;;;;;;;0.40;0.40;;;25.70;1.00;;;;;;5063742;28;20254;-79
2022/06/06 09:49:57;;;;;;;0.40;0.40;;;25.50;1.00;;;;;;5063521;28;20175;-80
2022/06/06 09:52:39;;;;;;;0.40;0.40;;;25.60;1.00;;;;;;5062250;28;20210;-78
2022/06/06 10:00:45;;;;;;;0.33;0.33;;;24.80;1.00;;;;;;5063839;28;20550;-79
2022/06/06 10:03:38;;;;;;;0.40;0.40;;;24.60;1.00;;;;;;5064677;28;20183;-80
2022/06/06 10:06:28;;;;;;;0.37;0.37;;;24.40;1.00;;;;;;5056673;28;20179;-80
2022/06/06 10:09:41;;;;;;;0.37;0.37;;;24.30;1.00;;;;;;5056895;28;20179;-81
2022/06/06 10:12:21;;;;;;;0.40;0.40;;;24.40;1.00;;;;;;5035673;28;20203;-80
2022/06/06 10:15:13;;;;;;;0.37;0.37;;;24.60;1.00;;;;;;5056594;28;20175;-79
2022/06/06 10:17:53;;;;;;;0.40;0.40;;;25.00;1.00;;;;;;5056312;28;20302;-80
2022/06/06 10:20:36;;;;;;;0.50;0.50;;;25.70;1.00;;;;;;5056914;28;20178;-80
2022/06/06 10:23:01;;;;;;;0.30;0.30;;;25.70;1.00;;;;;;5055765;28;20198;-80
2022/06/06 10:25:46;;;;;;;0.30;0.30;;;25.30;1.00;;;;;;5056427;28;20171;-80
2022/06/06 10:28:36;;;;;;;0.40;0.40;;;25.10;1.00;;;;;;5056243;28;20175;-81
2022/06/06 10:31:32;;;;;;;0.40;0.40;;;25.40;1.00;;;;;;5055621;28;20175;-79
2022/06/06 10:34:28;;;;;;;0.40;0.40;;;25.80;1.00;;;;;;5056459;28;20548;-80
2022/06/06 10:37:12;;;;;;;0.40;0.40;;;26.70;1.00;;;;;;5055709;28;20175;-80
2022/06/06 10:39:58;;;;;;;0.30;0.30;;;26.90;1.00;;;;;;5055437;28;20209;-80
2022/06/06 10:42:41;;;;;;;0.40;0.40;;;26.20;1.00;;;;;;5055856;28;20333;-79
2022/06/06 10:45:36;;;;;;;0.30;0.30;;;25.80;1.00;;;;;;5056102;28;20176;-80
2022/06/06 10:48:07;;;;;;;0.40;0.40;;;25.80;1.00;;;;;;5055949;28;20175;-79
2022/06/06 10:50:38;;;;;;;0.43;0.43;;;26.10;1.00;;;;;;5055245;28;20171;-79
2022/06/06 10:53:29;;;;;;;0.30;0.30;;;26.90;1.00;;;;;;5055474;28;20664;-81
2022/06/06 10:56:27;;;;;;;0.40;0.40;;;27.30;1.00;;;;;;5055645;28;20262;-80
2022/06/06 10:59:15;;;;;;;0.40;0.40;;;27.80;1.00;;;;;;5055383;28;20230;-79
2022/06/06 11:02:18;;;;;;;0.60;0.60;;;28.10;1.00;;;;;;5056460;28;20199;-81
2022/06/06 11:05:29;;;;;;;0.40;0.40;;;27.60;1.00;;;;;;5055070;28;20178;-80
2022/06/06 11:08:23;;;;;;;0.50;0.50;;;27.30;1.00;;;;;;5055558;28;20257;-81
2022/06/06 11:11:46;;;;;;;0.40;0.40;;;27.20;1.00;;;;;;5055744;28;20175;-80
2022/06/06 11:14:29;;;;;;;0.50;0.50;;;26.80;1.00;;;;;;4954094;29;20683;-82
2022/06/06 11:17:22;;;;;;;0.40;0.40;;;26.80;1.00;;;;;;4954695;29;20182;-81
2022/06/06 11:20:25;;;;;;;0.60;0.60;;;26.70;1.00;;;;;;5031186;28;20274;-80
2022/06/06 11:23:07;;;;;;;0.30;0.30;;;26.50;1.00;;;;;;5055310;28;20200;-80
2022/06/06 11:26:11;;;;;;;0.43;0.43;;;26.60;1.00;;;;;;5055257;28;20261;-80
2022/06/06 11:29:23;;;;;;;0.50;0.50;;;26.50;1.00;;;;;;5055123;28;20170;-79
2022/06/06 11:31:49;;;;;;;0.30;0.30;;;26.50;1.00;;;;;;4954332;28;20245;-79
2022/06/06 11:34:37;;;;;;;0.50;0.50;;;26.50;1.00;;;;;;5041558;28;20179;-80
2022/06/06 11:37:08;;;;;;;0.30;0.30;;;26.20;1.00;;;;;;5054417;28;20222;-80
2022/06/06 11:39:56;;;;;;;0.40;0.40;;;26.00;1.00;;;;;;5053576;28;20178;-79
2022/06/06 11:42:33;;;;;;;0.50;0.50;;;26.10;1.00;;;;;;5054296;28;20278;-79
2022/06/06 11:44:59;;;;;;;0.40;0.40;;;25.90;1.00;;;;;;5054428;28;20202;-80
2022/06/06 11:47:43;;;;;;;0.30;0.30;;;25.70;1.00;;;;;;5053960;28;20182;-79
2022/06/06 11:50:53;;;;;;;0.40;0.40;;;25.50;1.00;;;;;;5054059;28;20175;-79
2022/06/06 11:53:43;;;;;;;0.50;0.50;;;25.30;1.00;;;;;;5007205;28;20179;-79
2022/06/06 11:56:27;;;;;;;0.40;0.40;;;25.20;1.00;;;;;;5054229;28;20266;-79
2022/06/06 11:59:10;;;;;;;0.40;0.40;;;25.10;1.00;;;;;;5053529;28;20225;-80
2022/06/06 12:01:57;;;;;;;0.50;0.50;;;24.80;1.00;;;;;;5055015;28;20266;-79
2022/06/06 12:05:13;;;;;;;0.47;0.47;;;24.60;1.00;;;;;;5053925;28;20254;-78
2022/06/06 12:07:42;;;;;;;0.40;0.40;;;24.40;1.00;;;;;;5011131;28;20243;-79
2022/06/06 12:10:23;;;;;;;0.33;0.33;;;24.20;1.00;;;;;;5053258;28;20175;-80
2022/06/06 12:13:21;;;;;;;0.40;0.40;;;24.10;1.00;;;;;;5053469;28;20199;-81
2022/06/06 12:15:55;;;;;;;0.47;0.47;;;24.10;1.00;;;;;;5053813;28;20183;-79
2022/06/06 12:18:33;;;;;;;0.30;0.30;;;24.00;1.00;;;;;;5053763;28;20749;-79
2022/06/06 12:21:27;;;;;;;0.30;0.30;;;24.10;1.00;;;;;;5053396;28;20171;-80
2022/06/06 12:24:07;;;;;;;0.40;0.40;;;24.10;1.00;;;;;;5053711;28;20179;-79
2022/06/06 12:26:46;;;;;;;0.30;0.30;;;24.20;1.00;;;;;;5054162;28;20167;-79
2022/06/06 12:29:44;;;;;;;0.30;0.30;;;24.40;1.00;;;;;;5053400;28;20236;-79
2022/06/06 12:32:20;;;;;;;0.33;0.33;;;25.00;1.00;;;;;;5053651;28;20221;-79
2022/06/06 12:34:49;;;;;;;0.40;0.40;;;26.10;1.00;;;;;;5054405;28;20185;-79
2022/06/06 12:37:52;;;;;;;0.30;0.30;;;26.40;1.00;;;;;;5054098;28;20207;-80
2022/06/06 12:40:35;;;;;;;0.50;0.50;;;26.80;1.00;;;;;;5001564;28;20297;-80
2022/06/06 12:43:16;;;;;;;0.40;0.40;;;27.40;1.00;;;;;;5055015;28;20568;-79
2022/06/06 12:45:56;;;;;;;0.50;0.50;;;27.60;1.00;;;;;;5053972;28;20175;-79
2022/06/06 12:48:43;;;;;;;0.50;0.50;;;27.80;1.00;;;;;;5053991;28;20238;-80
2022/06/06 12:51:26;;;;;;;0.50;0.50;;;28.10;1.00;;;;;;5054010;28;20198;-79
2022/06/06 12:54:57;;;;;;;0.57;0.57;;;28.60;1.00;;;;;;5055528;28;20186;-80
2022/06/06 12:57:21;;;;;;;0.60;0.60;;;28.50;1.00;;;;;;5055394;28;20293;-81
2022/06/06 13:00:08;;;;;;;0.57;0.57;;;28.10;1.00;;;;;;5054415;28;20270;-80
2022/06/06 13:03:12;;;;;;;0.50;0.50;;;27.90;1.00;;;;;;5055301;28;20214;-80
2022/06/06 13:05:51;;;;;;;0.60;0.60;;;27.70;1.00;;;;;;4954443;29;20313;-80
2022/06/06 13:08:43;;;;;;;0.60;0.60;;;27.40;1.00;;;;;;5042986;28;20213;-79
2022/06/06 13:11:30;;;;;;;0.50;0.50;;;27.20;1.00;;;;;;5041028;28;20210;-80
2022/06/06 13:14:07;;;;;;;0.60;0.60;;;27.00;1.00;;;;;;5055298;28;20242;-80
2022/06/06 13:17:02;;;;;;;0.50;0.50;;;26.80;1.00;;;;;;5056662;28;20533;-80
2022/06/06 13:19:50;;;;;;;0.60;0.60;;;26.70;1.00;;;;;;5056993;28;20187;-79
2022/06/06 13:22:40;;;;;;;0.50;0.50;;;26.60;1.00;;;;;;5061273;28;20608;-80
2022/06/06 13:25:15;;;;;;;0.43;0.43;;;26.50;1.00;;;;;;5062738;28;20187;-81
2022/06/06 13:27:56;;;;;;;0.30;0.30;;;26.20;1.00;;;;;;5062244;28;20163;-80
2022/06/06 13:30:23;;;;;;;0.30;0.30;;;26.00;1.00;;;;;;5057008;28;20269;-80
2022/06/06 13:32:59;;;;;;;0.30;0.30;;;25.70;1.00;;;;;;5057524;28;20329;-81
2022/06/06 13:35:37;;;;;;;0.30;0.30;;;25.50;1.00;;;;;;5058589;28;20544;-80
2022/06/06 13:38:33;;;;;;;0.30;0.30;;;25.30;1.00;;;;;;5059034;28;20289;-80
2022/06/06 13:41:14;;;;;;;0.30;0.30;;;25.20;1.00;;;;;;5057609;28;20186;-81
2022/06/06 13:44:05;;;;;;;0.30;0.30;;;25.10;1.00;;;;;;5040148;28;20175;-80
2022/06/06 13:46:46;;;;;;;0.30;0.30;;;25.00;1.00;;;;;;5057441;28;20214;-80
2022/06/06 13:49:23;;;;;;;0.37;0.37;;;25.10;1.00;;;;;;5057308;28;20219;-80
2022/06/06 13:52:15;;;;;;;0.40;0.40;;;25.10;1.00;;;;;;5057719;28;20289;-80
2022/06/06 13:54:46;;;;;;;0.40;0.40;;;25.00;1.00;;;;;;5060527;28;20258;-79
2022/06/06 13:57:24;;;;;;;0.40;0.40;;;25.20;1.00;;;;;;5073048;28;20195;-79
2022/06/06 14:00:10;;;;;;;0.40;0.40;;;25.00;1.00;;;;;;5057980;28;20167;-80
2022/06/06 14:02:44;;;;;;;0.50;0.50;;;24.90;1.00;;;;;;5078115;28;20191;-80
2022/06/06 14:05:32;;;;;;;0.47;0.47;;;24.70;1.00;;;;;;5079334;28;20246;-80
2022/06/06 14:08:07;;;;;;;0.50;0.50;;;24.40;1.00;;;;;;5078911;28;20155;-80
2022/06/06 14:11:18;;;;;;;0.40;0.40;;;24.00;1.00;;;;;;5078210;28;20190;-80
2022/06/06 14:13:52;;;;;;;0.40;0.40;;;23.90;1.00;;;;;;5078701;28;20213;-81
2022/06/06 14:16:29;;;;;;;0.40;0.40;;;23.80;1.00;;;;;;5061596;28;20190;-80
2022/06/06 14:19:08;;;;;;;0.33;0.33;;;23.80;1.00;;;;;;5078271;28;20223;-81